createdAt,value
2023-03-26T00:01:17.963Z,8.40
2023-03-26T00:03:47.012Z,8.40
2023-03-26T00:06:17.084Z,8.40
2023-03-26T00:08:45.793Z,8.40
2023-03-26T00:11:15.571Z,8.40
2023-03-26T00:13:46.806Z,8.40
2023-03-26T00:16:18.686Z,8.30
2023-03-26T00:18:46.626Z,8.40
2023-03-26T00:21:16.478Z,8.40
2023-03-26T00:23:45.415Z,8.40
2023-03-26T00:26:12.894Z,8.40
2023-03-26T00:28:42.476Z,8.40
2023-03-26T00:31:12.973Z,8.40
2023-03-26T00:33:42.704Z,8.50
2023-03-26T00:36:14.769Z,8.40
2023-03-26T00:38:43.173Z,8.40
2023-03-26T00:41:22.929Z,8.40
2023-03-26T00:43:53.588Z,8.40
2023-03-26T00:46:21.130Z,8.50
2023-03-26T00:48:50.669Z,8.50
2023-03-26T00:51:20.652Z,8.50
2023-03-26T00:53:49.731Z,8.40
2023-03-26T00:56:18.031Z,8.50
2023-03-26T00:58:47.551Z,8.50
2023-03-26T01:01:18.461Z,8.50
2023-03-26T01:03:57.120Z,8.50
2023-03-26T01:06:32.912Z,8.40
2023-03-26T01:09:04.389Z,8.40
2023-03-26T01:11:34.679Z,8.40
2023-03-26T01:14:07.330Z,8.40
2023-03-26T01:16:39.970Z,8.40
2023-03-26T01:19:13.016Z,8.40
2023-03-26T01:21:42.291Z,8.40
2023-03-26T01:24:11.073Z,8.40
2023-03-26T01:27:09.714Z,8.50
2023-03-26T01:29:43.323Z,8.40
2023-03-26T01:32:23.045Z,8.40
2023-03-26T01:35:06.317Z,8.40
2023-03-26T01:37:46.770Z,8.40
2023-03-26T01:40:24.204Z,8.40
2023-03-26T01:42:58.610Z,8.50
2023-03-26T01:45:30.779Z,8.50
2023-03-26T01:47:58.477Z,8.50
2023-03-26T01:50:26.344Z,8.50
2023-03-26T01:52:53.738Z,8.40
2023-03-26T01:55:26.298Z,8.30
2023-03-26T01:58:05.392Z,8.30
2023-03-26T02:00:36.445Z,8.30
2023-03-26T02:03:19.514Z,8.30
2023-03-26T02:05:53.524Z,8.30
2023-03-26T02:08:24.759Z,8.30
2023-03-26T02:10:57.538Z,8.20
2023-03-26T02:13:26.355Z,8.20
2023-03-26T02:15:58.905Z,8.10
2023-03-26T02:18:36.563Z,8.10
2023-03-26T02:21:06.270Z,8.10
2023-03-26T02:23:35.790Z,8.10
2023-03-26T02:26:08.245Z,8.10
2023-03-26T02:28:39.089Z,8.10
2023-03-26T02:31:09.706Z,8.10
2023-03-26T02:33:37.739Z,8.20
2023-03-26T02:36:06.286Z,8.20
2023-03-26T02:38:35.141Z,8.20
2023-03-26T02:41:06.363Z,8.10
2023-03-26T02:43:51.055Z,8.10
2023-03-26T02:46:21.735Z,8.10
2023-03-26T02:49:00.114Z,8.00
2023-03-26T02:51:27.645Z,7.90
2023-03-26T02:54:21.303Z,7.90
2023-03-26T02:57:16.359Z,7.90
2023-03-26T02:59:46.303Z,8.00
2023-03-26T03:02:32.106Z,8.00
2023-03-26T03:05:12.124Z,7.90
2023-03-26T03:07:40.174Z,7.90
2023-03-26T03:10:10.011Z,7.90
2023-03-26T03:13:15.029Z,8.00
2023-03-26T03:15:42.750Z,7.90
2023-03-26T03:18:10.240Z,7.90
2023-03-26T03:20:37.999Z,7.90
2023-03-26T03:23:05.412Z,7.80
2023-03-26T03:25:33.791Z,7.80
2023-03-26T03:28:01.377Z,7.90
2023-03-26T03:30:30.294Z,7.90
2023-03-26T03:33:10.574Z,7.90
2023-03-26T03:35:39.954Z,8.00
2023-03-26T03:38:07.390Z,8.00
2023-03-26T03:40:45.372Z,8.10
2023-03-26T03:43:13.896Z,8.10
2023-03-26T03:46:03.181Z,8.10
2023-03-26T03:48:39.055Z,8.20
2023-03-26T03:51:08.153Z,8.20
2023-03-26T03:53:47.403Z,8.20
2023-03-26T03:56:19.543Z,8.10
2023-03-26T03:59:05.970Z,8.00
2023-03-26T04:01:37.241Z,8.00
2023-03-26T04:04:09.485Z,8.00
2023-03-26T04:06:52.154Z,7.90
2023-03-26T04:09:19.900Z,8.00
2023-03-26T04:11:50.741Z,8.10
2023-03-26T04:14:35.765Z,8.10
2023-03-26T04:17:09.357Z,8.10
2023-03-26T04:19:38.436Z,8.10
2023-03-26T04:22:09.444Z,8.10
2023-03-26T04:24:43.770Z,8.10
2023-03-26T04:27:32.090Z,8.10
2023-03-26T04:30:20.921Z,8.00
2023-03-26T04:33:06.305Z,8.00
2023-03-26T04:35:37.858Z,8.00
2023-03-26T04:38:10.020Z,8.00
2023-03-26T04:40:42.261Z,8.10
2023-03-26T04:43:35.518Z,8.10
2023-03-26T04:46:18.503Z,8.00
2023-03-26T04:48:57.550Z,7.90
2023-03-26T04:51:28.599Z,8.00
2023-03-26T04:54:00.971Z,7.90
2023-03-26T04:56:46.500Z,7.90
2023-03-26T04:59:30.307Z,7.90
2023-03-26T05:02:00.120Z,7.90
2023-03-26T05:04:34.114Z,7.90
2023-03-26T05:07:03.007Z,7.90
2023-03-26T05:09:38.208Z,7.90
2023-03-26T05:12:12.659Z,7.90
2023-03-26T05:14:51.742Z,7.90
2023-03-26T05:17:30.994Z,7.90
2023-03-26T05:20:00.463Z,7.90
2023-03-26T05:22:28.050Z,7.90
2023-03-26T05:25:11.008Z,7.90
2023-03-26T05:27:39.320Z,7.90
2023-03-26T05:30:08.338Z,7.90
2023-03-26T05:32:43.494Z,7.90
2023-03-26T05:35:18.818Z,7.90
2023-03-26T05:37:48.041Z,7.90
2023-03-26T05:40:17.200Z,7.90
2023-03-26T05:42:51.881Z,7.90
2023-03-26T05:45:41.607Z,7.80
2023-03-26T05:48:17.739Z,7.80
2023-03-26T05:50:48.112Z,7.90
2023-03-26T05:53:16.244Z,7.90
2023-03-26T05:56:06.944Z,7.90
2023-03-26T05:58:52.766Z,8.00
2023-03-26T06:01:38.544Z,8.00
2023-03-26T06:04:26.008Z,7.90
2023-03-26T06:07:18.174Z,8.00
2023-03-26T06:09:53.927Z,8.00
2023-03-26T06:12:21.986Z,8.00
2023-03-26T06:14:49.779Z,8.00
2023-03-26T06:17:20.514Z,7.90
2023-03-26T06:20:11.314Z,7.90
2023-03-26T06:22:43.138Z,8.00
2023-03-26T06:25:33.372Z,8.10
2023-03-26T06:28:16.685Z,8.10
2023-03-26T06:30:54.066Z,8.10
2023-03-26T06:33:35.827Z,8.00
2023-03-26T06:36:04.080Z,8.10
2023-03-26T06:38:32.814Z,8.10
2023-03-26T06:41:03.458Z,8.20
2023-03-26T06:43:49.512Z,8.30
2023-03-26T06:46:42.644Z,8.30
2023-03-26T06:49:45.478Z,8.20
2023-03-26T06:52:33.093Z,8.30
2023-03-26T06:55:23.484Z,8.30
2023-03-26T06:58:11.588Z,8.30
2023-03-26T07:01:04.802Z,8.30
2023-03-26T07:03:50.890Z,8.40
2023-03-26T07:06:36.863Z,8.40
2023-03-26T07:09:22.713Z,8.50
2023-03-26T07:12:03.670Z,8.40
2023-03-26T07:14:53.770Z,8.40
2023-03-26T07:17:44.123Z,8.40
2023-03-26T07:20:20.437Z,8.40
2023-03-26T07:22:48.776Z,8.50
2023-03-26T07:25:29.500Z,8.50
2023-03-26T07:28:25.652Z,8.70
2023-03-26T07:31:27.243Z,8.70
2023-03-26T07:34:29.763Z,8.70
2023-03-26T07:37:21.747Z,8.80
2023-03-26T07:40:18.551Z,8.80
2023-03-26T07:43:25.439Z,8.90
2023-03-26T07:45:57.504Z,8.90
2023-03-26T07:48:40.793Z,9.00
2023-03-26T07:51:13.422Z,9.10
2023-03-26T07:53:50.470Z,9.10
2023-03-26T07:56:40.550Z,9.00
2023-03-26T07:59:33.287Z,9.10
2023-03-26T08:02:46.614Z,9.10
2023-03-26T08:05:52.210Z,9.00
2023-03-26T08:08:48.986Z,8.80
2023-03-26T08:11:51.196Z,8.90
2023-03-26T08:14:33.715Z,9.00
2023-03-26T08:17:09.658Z,8.90
2023-03-26T08:19:57.986Z,8.90
2023-03-26T08:22:29.288Z,8.90
2023-03-26T08:25:22.462Z,8.80
2023-03-26T08:28:02.528Z,8.70
2023-03-26T08:30:31.579Z,8.80
2023-03-26T08:33:02.379Z,8.90
2023-03-26T08:35:29.904Z,8.90
2023-03-26T08:37:57.685Z,8.80
2023-03-26T08:40:54.895Z,8.80
2023-03-26T08:43:48.459Z,8.80
2023-03-26T08:46:56.662Z,8.70
2023-03-26T08:49:48.887Z,8.80
2023-03-26T08:52:51.329Z,8.90
2023-03-26T08:55:42.113Z,9.00
2023-03-26T08:58:41.204Z,9.00
2023-03-26T09:01:31.406Z,9.00
2023-03-26T09:04:42.125Z,9.00
2023-03-26T09:07:41.142Z,8.90
2023-03-26T09:10:31.599Z,9.10
2023-03-26T09:13:38.385Z,9.20
2023-03-26T09:16:42.055Z,9.30
2023-03-26T09:19:46.987Z,9.40
2023-03-26T09:22:48.478Z,9.50
2023-03-26T09:25:31.153Z,9.40
2023-03-26T09:28:24.068Z,9.50
2023-03-26T09:31:20.157Z,9.50
2023-03-26T09:34:00.346Z,9.50
2023-03-26T09:36:51.981Z,9.60
2023-03-26T09:39:37.796Z,9.60
2023-03-26T09:42:13.557Z,9.60
2023-03-26T09:45:10.898Z,9.70
2023-03-26T09:48:10.513Z,9.80
2023-03-26T09:51:10.750Z,9.80
2023-03-26T09:53:59.735Z,9.60
2023-03-26T09:56:41.327Z,9.60
2023-03-26T09:59:36.806Z,9.60
2023-03-26T10:02:18.846Z,9.60
2023-03-26T10:05:20.452Z,9.70
2023-03-26T10:08:16.357Z,9.70
2023-03-26T10:10:50.410Z,9.70
2023-03-26T10:13:30.595Z,9.70
2023-03-26T10:16:17.000Z,9.70
2023-03-26T10:18:59.663Z,9.70
2023-03-26T10:21:56.375Z,9.70
2023-03-26T10:24:39.710Z,9.60
2023-03-26T10:27:23.066Z,9.60
2023-03-26T10:30:25.827Z,9.60
2023-03-26T10:32:59.790Z,9.60
2023-03-26T10:35:43.979Z,9.60
2023-03-26T10:38:31.048Z,9.70
2023-03-26T10:41:06.608Z,9.70
2023-03-26T10:44:07.947Z,9.70
2023-03-26T10:47:11.862Z,9.80
2023-03-26T10:50:17.153Z,9.80
2023-03-26T10:53:03.521Z,9.90
2023-03-26T10:55:47.692Z,9.90
2023-03-26T10:58:21.766Z,9.90
2023-03-26T11:00:55.601Z,9.90
2023-03-26T11:03:51.172Z,9.80
2023-03-26T11:06:38.854Z,9.90
2023-03-26T11:09:26.225Z,9.90
2023-03-26T11:12:27.325Z,10.00
2023-03-26T11:15:08.763Z,10.00
2023-03-26T11:17:46.333Z,10.00
2023-03-26T11:20:19.402Z,10.10
2023-03-26T11:23:06.146Z,10.10
2023-03-26T11:25:48.103Z,10.20
2023-03-26T11:28:27.684Z,10.30
2023-03-26T11:31:01.887Z,10.40
2023-03-26T11:33:36.604Z,10.50
2023-03-26T11:36:08.897Z,10.60
2023-03-26T11:38:48.114Z,10.80
2023-03-26T11:41:33.476Z,11.00
2023-03-26T11:44:19.076Z,11.30
2023-03-26T11:46:58.930Z,11.50
2023-03-26T11:49:28.903Z,11.70
2023-03-26T11:52:02.661Z,11.70
2023-03-26T11:54:39.519Z,11.90
2023-03-26T11:57:12.908Z,12.00
2023-03-26T11:59:55.876Z,12.10
2023-03-26T12:02:29.443Z,12.10
2023-03-26T12:05:18.268Z,12.20
2023-03-26T12:08:02.223Z,12.20
2023-03-26T12:10:34.983Z,12.20
2023-03-26T12:13:26.503Z,12.30
2023-03-26T12:16:05.953Z,12.30
2023-03-26T12:18:34.100Z,12.30
2023-03-26T12:21:08.196Z,12.30
2023-03-26T12:23:56.848Z,12.40
2023-03-26T12:26:40.377Z,12.50
2023-03-26T12:29:12.288Z,12.50
2023-03-26T12:31:54.840Z,12.50
2023-03-26T12:34:24.326Z,12.60
2023-03-26T12:36:54.478Z,12.60
2023-03-26T12:40:10.557Z,12.70
2023-03-26T12:44:50.407Z,12.60
2023-03-26T12:45:30.542Z,12.70
2023-03-26T12:48:04.206Z,12.90
2023-03-26T12:50:50.204Z,13.00
2023-03-26T12:53:53.841Z,13.20
2023-03-26T12:56:38.602Z,13.40
2023-03-26T12:59:29.814Z,13.50
2023-03-26T13:02:07.072Z,13.70
2023-03-26T13:05:05.749Z,13.90
2023-03-26T13:08:06.360Z,14.20
2023-03-26T13:10:57.040Z,14.30
2023-03-26T13:13:56.339Z,14.40
2023-03-26T13:16:34.958Z,14.70
2023-03-26T13:19:07.868Z,14.70
2023-03-26T13:22:08.075Z,14.70
2023-03-26T13:24:59.902Z,14.60
2023-03-26T13:27:48.331Z,14.50
2023-03-26T13:30:26.996Z,14.60
2023-03-26T13:33:07.887Z,14.50
2023-03-26T13:38:59.200Z,14.00
2023-03-26T13:41:37.518Z,13.80
2023-03-26T13:44:14.339Z,13.70
2023-03-26T13:46:48.747Z,13.40
2023-03-26T13:49:29.526Z,13.30
2023-03-26T13:52:03.557Z,13.40
2023-03-26T13:54:34.596Z,13.30
2023-03-26T13:57:09.493Z,13.30
2023-03-26T13:59:44.126Z,13.30
2023-03-26T14:02:39.401Z,13.30
2023-03-26T14:05:22.013Z,13.10
2023-03-26T14:07:53.299Z,13.10
2023-03-26T14:10:26.471Z,13.10
2023-03-26T14:12:58.653Z,13.20
2023-03-26T14:15:29.826Z,13.30
2023-03-26T14:18:06.549Z,13.40
2023-03-26T14:21:04.612Z,13.60
2023-03-26T14:23:51.201Z,13.80
2023-03-26T14:26:37.148Z,13.90
2023-03-26T14:29:28.064Z,14.30
2023-03-26T14:32:24.455Z,14.60
2023-03-26T14:35:10.929Z,15.00
2023-03-26T14:38:02.726Z,15.40
2023-03-26T14:40:40.101Z,15.70
2023-03-26T14:43:26.536Z,16.00
2023-03-26T14:46:07.401Z,16.10
2023-03-26T14:48:50.746Z,16.10
2023-03-26T14:51:33.867Z,16.30
2023-03-26T14:54:05.606Z,16.40
2023-03-26T14:56:48.231Z,16.20
2023-03-26T14:59:52.852Z,16.20
2023-03-26T15:03:02.177Z,15.90
2023-03-26T15:06:04.013Z,15.80
2023-03-26T15:09:09.071Z,15.70
2023-03-26T15:11:47.854Z,15.60
2023-03-26T15:14:40.716Z,15.60
2023-03-26T15:17:40.466Z,15.60
2023-03-26T15:20:49.005Z,15.60
2023-03-26T15:23:52.593Z,15.60
2023-03-26T15:27:08.969Z,15.50
2023-03-26T15:30:19.078Z,15.50
2023-03-26T15:33:24.784Z,15.30
2023-03-26T15:36:28.216Z,15.10
2023-03-26T15:39:28.108Z,15.00
2023-03-26T15:42:03.939Z,14.90
2023-03-26T15:44:54.075Z,14.80
2023-03-26T15:47:49.717Z,14.70
2023-03-26T15:50:38.608Z,14.70
2023-03-26T15:53:18.588Z,14.60
2023-03-26T15:56:00.573Z,14.50
2023-03-26T15:58:35.608Z,14.50
2023-03-26T16:01:18.880Z,14.50
2023-03-26T16:03:54.335Z,14.40
2023-03-26T16:06:31.123Z,14.20
2023-03-26T16:09:12.607Z,14.10
2023-03-26T16:11:54.796Z,14.10
2023-03-26T16:14:38.226Z,14.10
2023-03-26T16:17:11.816Z,14.10
2023-03-26T16:19:52.066Z,14.10
2023-03-26T16:22:53.677Z,14.00
2023-03-26T16:25:30.343Z,14.00
2023-03-26T16:28:19.612Z,13.90
2023-03-26T16:31:37.759Z,13.70
2023-03-26T16:34:27.583Z,13.60
2023-03-26T16:36:58.425Z,13.60
2023-03-26T16:39:39.170Z,13.40
2023-03-26T16:42:37.760Z,13.30
2023-03-26T16:45:21.786Z,13.20
2023-03-26T16:47:59.117Z,12.90
2023-03-26T16:50:36.979Z,12.80
2023-03-26T16:53:15.646Z,12.80
2023-03-26T16:55:47.922Z,12.70
2023-03-26T16:58:23.293Z,12.60
2023-03-26T17:01:04.090Z,12.60
2023-03-26T17:03:41.097Z,12.50
2023-03-26T17:06:30.663Z,12.50
2023-03-26T17:09:05.038Z,12.40
2023-03-26T17:11:45.853Z,12.30
2023-03-26T17:14:27.774Z,12.20
2023-03-26T17:17:16.734Z,12.10
2023-03-26T17:19:53.717Z,12.00
2023-03-26T17:22:35.943Z,11.90
2023-03-26T17:25:24.301Z,11.80
2023-03-26T17:28:15.886Z,11.70
2023-03-26T17:30:56.733Z,11.70
2023-03-26T17:33:29.512Z,11.60
2023-03-26T17:36:30.697Z,11.50
2023-03-26T17:39:19.512Z,11.40
2023-03-26T17:42:18.758Z,11.40
2023-03-26T17:44:50.452Z,11.30
2023-03-26T17:47:28.371Z,11.20
2023-03-26T17:50:00.748Z,11.20
2023-03-26T17:52:40.864Z,11.10
2023-03-26T17:55:13.233Z,11.10
2023-03-26T17:57:43.292Z,11.00
2023-03-26T18:00:18.281Z,11.00
2023-03-26T18:02:51.582Z,11.00
2023-03-26T18:05:19.469Z,10.90
2023-03-26T18:08:39.259Z,10.90
2023-03-26T18:11:23.734Z,10.70
2023-03-26T18:14:17.618Z,10.80
2023-03-26T18:16:47.416Z,10.70
2023-03-26T18:19:19.168Z,10.70
2023-03-26T18:21:50.166Z,10.60
2023-03-26T18:24:20.972Z,10.60
2023-03-26T18:26:53.937Z,10.50
2023-03-26T18:29:26.042Z,10.60
2023-03-26T18:31:55.715Z,10.50
2023-03-26T18:34:25.900Z,10.40
2023-03-26T18:37:15.620Z,10.30
2023-03-26T18:39:56.668Z,10.30
2023-03-26T18:42:26.991Z,10.20
2023-03-26T18:44:57.231Z,10.10
2023-03-26T18:47:30.510Z,10.10
2023-03-26T18:49:59.086Z,10.10
2023-03-26T18:52:29.450Z,10.10
2023-03-26T18:54:59.042Z,10.10
2023-03-26T18:57:29.396Z,10.10
2023-03-26T19:00:09.988Z,9.90
2023-03-26T19:02:38.965Z,9.80
2023-03-26T19:05:07.615Z,9.70
2023-03-26T19:07:35.883Z,9.70
2023-03-26T19:10:03.557Z,9.70
2023-03-26T19:12:33.997Z,9.70
2023-03-26T19:15:07.796Z,9.80
2023-03-26T19:17:39.598Z,9.70
2023-03-26T19:20:13.778Z,9.70
2023-03-26T19:22:42.354Z,9.70
2023-03-26T19:25:19.594Z,9.60
2023-03-26T19:27:49.159Z,9.60
2023-03-26T19:30:29.478Z,9.60
2023-03-26T19:33:11.886Z,9.50
2023-03-26T19:35:42.870Z,9.40
2023-03-26T19:38:20.736Z,9.40
2023-03-26T19:40:49.141Z,9.40
2023-03-26T19:43:18.422Z,9.40
2023-03-26T19:46:00.181Z,9.40
2023-03-26T19:48:45.460Z,9.40
2023-03-26T19:51:22.623Z,9.20
2023-03-26T19:53:55.026Z,9.20
2023-03-26T19:56:22.838Z,9.20
2023-03-26T19:58:51.649Z,9.10
2023-03-26T20:01:21.057Z,9.20
2023-03-26T20:03:50.664Z,9.10
2023-03-26T20:06:22.143Z,9.00
2023-03-26T20:08:53.206Z,9.00
2023-03-26T20:11:22.576Z,9.10
2023-03-26T20:13:52.309Z,9.00
2023-03-26T20:16:24.418Z,8.90
2023-03-26T20:18:51.726Z,8.90
2023-03-26T20:21:19.182Z,8.80
2023-03-26T20:23:46.514Z,8.70
2023-03-26T20:26:15.089Z,8.70
2023-03-26T20:28:48.421Z,8.60
2023-03-26T20:31:25.021Z,8.60
2023-03-26T20:33:54.225Z,8.40
2023-03-26T20:36:33.201Z,8.30
2023-03-26T20:39:02.262Z,8.30
2023-03-26T20:41:29.534Z,8.40
2023-03-26T20:43:56.951Z,8.40
2023-03-26T20:46:31.188Z,8.30
2023-03-26T20:48:59.585Z,8.20
2023-03-26T20:51:28.622Z,8.20
2023-03-26T20:53:56.549Z,8.20
2023-03-26T20:56:24.223Z,8.10
2023-03-26T20:59:07.855Z,8.10
2023-03-26T21:01:37.667Z,8.10
2023-03-26T21:04:05.367Z,8.10
2023-03-26T21:06:32.733Z,8.10
2023-03-26T21:09:00.547Z,8.00
2023-03-26T21:11:40.902Z,7.90
2023-03-26T21:14:15.036Z,8.00
2023-03-26T21:16:44.426Z,7.90
2023-03-26T21:19:12.360Z,7.90
2023-03-26T21:21:52.496Z,7.80
2023-03-26T21:24:29.616Z,7.70
2023-03-26T21:27:06.035Z,7.80
2023-03-26T21:29:33.938Z,7.70
2023-03-26T21:32:07.242Z,7.60
2023-03-26T21:34:35.132Z,7.60
2023-03-26T21:37:04.125Z,7.60
2023-03-26T21:39:31.918Z,7.60
2023-03-26T21:42:05.276Z,7.60
2023-03-26T21:44:35.009Z,7.50
2023-03-26T21:47:05.270Z,7.50
2023-03-26T21:49:34.867Z,7.50
2023-03-26T21:52:07.304Z,7.50
2023-03-26T21:54:35.437Z,7.50
2023-03-26T21:57:16.112Z,7.50
2023-03-26T21:59:50.027Z,7.50
2023-03-26T22:02:27.682Z,7.40
2023-03-26T22:04:59.423Z,7.40
2023-03-26T22:07:34.347Z,7.30
2023-03-26T22:10:01.866Z,7.30
2023-03-26T22:12:29.529Z,7.20
2023-03-26T22:14:57.438Z,7.10
2023-03-26T22:17:27.527Z,7.10
2023-03-26T22:19:56.189Z,7.00
2023-03-26T22:22:26.205Z,7.10
2023-03-26T22:24:53.688Z,7.00
2023-03-26T22:27:20.915Z,6.90
2023-03-26T22:29:48.185Z,6.90
2023-03-26T22:32:15.558Z,7.00
2023-03-26T22:34:44.909Z,6.90
2023-03-26T22:37:12.203Z,6.90
2023-03-26T22:39:40.232Z,6.90
2023-03-26T22:42:09.792Z,6.80
2023-03-26T22:44:37.386Z,6.80
2023-03-26T22:47:06.396Z,6.80
2023-03-26T22:49:33.729Z,6.70
2023-03-26T22:52:02.384Z,6.70
2023-03-26T22:54:29.785Z,6.60
2023-03-26T22:56:57.271Z,6.50
2023-03-26T22:59:26.370Z,6.50
2023-03-26T23:01:54.272Z,6.40
2023-03-26T23:04:31.378Z,6.40
2023-03-26T23:06:59.775Z,6.40
2023-03-26T23:09:29.364Z,6.40
2023-03-26T23:11:56.700Z,6.40
2023-03-26T23:14:27.199Z,6.50
2023-03-26T23:16:55.001Z,6.40
2023-03-26T23:19:22.399Z,6.40
2023-03-26T23:21:49.777Z,6.30
2023-03-26T23:24:17.303Z,6.30
2023-03-26T23:26:50.740Z,6.30
2023-03-26T23:29:18.916Z,6.30
2023-03-26T23:31:46.366Z,6.20
2023-03-26T23:34:14.225Z,6.20
2023-03-26T23:36:42.286Z,6.10
2023-03-26T23:39:10.831Z,6.00
2023-03-26T23:41:38.223Z,6.00
2023-03-26T23:44:07.010Z,6.00
2023-03-26T23:46:34.675Z,5.90
2023-03-26T23:49:03.464Z,5.90
2023-03-26T23:51:31.704Z,5.90
2023-03-26T23:53:59.844Z,5.90
2023-03-26T23:56:27.725Z,5.90
2023-03-26T23:58:55.226Z,5.90
